To NAV CANADA Home Page Login to a new session Search on AWWS site Disclaimer Vers la page française équivalente Tips FAQ What's new on the site To the Forecasts and Observations / NOTAM section To "File a Flight Plan" website Publications and other links Update of the User's profile FIC Telephone Numbers My Weather Data Folder Route Weather Data Regional Weather Data Local Weather Data To the Forecasts and Observations / NOTAM section
Request Generated 04/24/2019 at 16:41:35 UTC . Weather information available at that time is displayed.

METAR/TAF

MONTREAL/PIERRE-ELLIOTT-TRUDEAU INTL/QC    

METAR CYUL 241600Z 24013G18KT 6SM -DZ BR FEW007 BKN013 OVC019 06/05 A2969 RMK SF2SF5SC1 SLP056=
METAR CYUL 241500Z 25011G18KT 3SM -RA BR BKN007 OVC012 06/05 A2968 RMK SF5SF3 SLP052=
SPECI CYUL 241446Z 25012KT 4SM -RA BR BKN007 BKN012 OVC019 06/05 A2968 RMK SF5SF2SC1 SLP051=
METAR CYUL 241400Z 24014G20KT 8SM -RA FEW008 BKN011 OVC020 06/05 A2966 RMK SF2SF5SC1 SLP046=

TAF CYUL 241438Z 2415/2512 25015G25KT P6SM -RA OVC012 TEMPO 2415/2419
5SM -DZ BR OVC008
BECMG 2415/2417 27012G22KT
FM241900 28010G20KT P6SM -RA OVC015
FM242300 30008KT P6SM OVC020
FM250600 04007KT 6SM -DZ BR SCT008 OVC015
RMK NXT FCST BY 241800Z=
Your time UTC time
Weather data provided by Environment Canada and NAV CANADA